Time;durP1;ratioP1;P1;durP2;ratioP2;P2;SDS_P1;SDS_P2;PMS_P1;PMS_P2;Temp;Humidity;BMP_temperature;BMP_pressure;BME280_temperature;BME280_humidity;BME280_pressure;Samples;Min_cycle;Max_cycle;Signal;HPM_P1;HPM_P2
2021/06/10 00:00:38;;;;;;;5.17;4.30;;;;;15.60;101675.00;;;;10483215;28;20537;-78
2021/06/10 00:05:41;;;;;;;5.67;4.63;;;;;15.50;101674.00;;;;10466483;28;20194;-77
2021/06/10 00:10:44;;;;;;;6.47;4.57;;;;;15.40;101670.00;;;;10465962;28;20213;-78
2021/06/10 00:15:46;;;;;;;8.37;4.77;;;;;15.40;101664.00;;;;10483276;28;20194;-77
2021/06/10 00:20:48;;;;;;;6.63;5.13;;;;;15.40;101673.00;;;;10465978;28;20190;-78
2021/06/10 00:25:50;;;;;;;9.20;5.03;;;;;15.40;101667.00;;;;10482336;28;20568;-77
2021/06/10 00:30:52;;;;;;;8.27;5.80;;;;;15.30;101667.00;;;;10465435;28;20225;-77
2021/06/10 00:35:54;;;;;;;6.10;5.13;;;;;15.30;101671.00;;;;10465143;28;20217;-77
2021/06/10 00:40:56;;;;;;;4.47;4.07;;;;;15.20;101679.00;;;;10465926;28;20198;-78
2021/06/10 00:45:58;;;;;;;6.40;4.30;;;;;15.10;101685.00;;;;10449229;28;20193;-78
2021/06/10 00:51:02;;;;;;;8.00;4.67;;;;;15.00;101668.00;;;;10465575;28;20209;-77
2021/06/10 00:56:05;;;;;;;6.03;4.30;;;;;14.90;101670.00;;;;10481358;28;20197;-77
2021/06/10 01:01:08;;;;;;;6.70;4.83;;;;;14.80;101675.00;;;;10473944;28;20231;-77
2021/06/10 01:06:29;;;;;;;7.40;5.30;;;;;14.70;101680.00;;;;10487254;28;20200;-77
2021/06/10 01:12:12;;;;;;;5.87;5.27;;;;;14.70;101666.00;;;;10479520;28;20217;-77
2021/06/10 01:17:14;;;;;;;6.00;4.80;;;;;14.70;101677.00;;;;10462501;28;20297;-77
2021/06/10 01:22:25;;;;;;;6.13;4.83;;;;;14.60;101674.00;;;;10467558;28;20643;-76
2021/06/10 01:27:31;;;;;;;5.37;4.87;;;;;14.60;101663.00;;;;10485722;28;20193;-76
2021/06/10 01:32:35;;;;;;;8.23;5.10;;;;;14.60;101659.00;;;;10478873;28;20561;-77
2021/06/10 01:37:37;;;;;;;5.00;4.37;;;;;14.60;101663.00;;;;10461360;28;20209;-77
2021/06/10 01:42:41;;;;;;;5.47;4.60;;;;;14.50;101677.00;;;;10476840;28;20202;-76
2021/06/10 01:47:46;;;;;;;5.73;5.03;;;;;14.40;101671.00;;;;10469398;28;20204;-76
2021/06/10 01:52:52;;;;;;;6.73;5.40;;;;;14.30;101673.00;;;;10469141;28;20185;-76
2021/06/10 01:57:57;;;;;;;6.47;5.03;;;;;14.20;101671.00;;;;10469714;28;20189;-77
2021/06/10 02:02:59;;;;;;;8.63;6.17;;;;;14.20;101685.00;;;;10501569;28;20213;-77
2021/06/10 02:08:02;;;;;;;9.27;6.40;;;;;14.20;101675.00;;;;10467755;28;20186;-76
2021/06/10 02:13:05;;;;;;;6.13;5.47;;;;;14.30;101675.00;;;;10483891;28;20189;-76
2021/06/10 02:18:07;;;;;;;6.77;5.97;;;;;14.20;101664.00;;;;10450934;28;20224;-76
2021/06/10 02:23:09;;;;;;;8.40;6.07;;;;;14.20;101673.00;;;;10500863;28;20316;-76
2021/06/10 02:28:11;;;;;;;7.33;6.20;;;;;14.10;101675.00;;;;10443426;28;20194;-76
2021/06/10 02:33:13;;;;;;;7.27;5.63;;;;;14.00;101680.00;;;;10475230;28;20205;-77
2021/06/10 02:38:18;;;;;;;7.10;5.80;;;;;14.00;101665.00;;;;10425671;28;20201;-76
2021/06/10 02:43:20;;;;;;;7.93;6.20;;;;;13.90;101674.00;;;;10425591;28;20263;-76
2021/06/10 02:48:23;;;;;;;10.70;6.70;;;;;13.80;101661.00;;;;10485827;28;20649;-76
2021/06/10 02:53:28;;;;;;;11.63;7.57;;;;;13.80;101658.00;;;;10482219;28;20236;-77
2021/06/10 02:58:32;;;;;;;8.97;8.03;;;;;13.80;101653.00;;;;10458787;28;20240;-78
2021/06/10 03:03:36;;;;;;;12.07;8.23;;;;;13.80;101641.00;;;;10458451;28;20242;-77
2021/06/10 03:08:38;;;;;;;10.03;9.03;;;;;13.80;101645.00;;;;10458875;28;20202;-77
2021/06/10 03:13:40;;;;;;;15.87;11.97;;;;;13.80;101646.00;;;;10455934;28;20216;-77
2021/06/10 03:18:42;;;;;;;14.33;12.07;;;;;13.80;101652.00;;;;10440533;28;20661;-77
2021/06/10 03:23:44;;;;;;;14.37;11.83;;;;;13.80;101644.00;;;;10441245;28;20210;-77
2021/06/10 03:28:46;;;;;;;16.00;10.57;;;;;13.80;101643.00;;;;10440869;28;20785;-76
2021/06/10 03:33:50;;;;;;;16.97;11.70;;;;;13.80;101627.00;;;;10457646;28;20221;-77
2021/06/10 03:38:52;;;;;;;18.50;13.53;;;;;13.70;101632.00;;;;10459400;28;20194;-77
2021/06/10 03:43:55;;;;;;;21.60;16.90;;;;;13.80;101637.00;;;;10456384;28;20210;-77
2021/06/10 03:48:58;;;;;;;20.93;14.70;;;;;13.90;101628.00;;;;10456219;28;20194;-77
2021/06/10 03:54:01;;;;;;;16.07;13.57;;;;;14.00;101612.00;;;;10456749;28;20541;-77
2021/06/10 03:59:03;;;;;;;25.27;22.40;;;;;14.10;101609.00;;;;10473092;28;20190;-77
2021/06/10 04:04:05;;;;;;;28.50;22.07;;;;;14.30;101622.00;;;;10455527;28;20210;-77
2021/06/10 04:09:08;;;;;;;22.53;19.13;;;;;14.50;101626.00;;;;10441694;28;20209;-77
2021/06/10 04:14:11;;;;;;;21.93;19.63;;;;;14.90;101624.00;;;;10449141;28;20186;-77
2021/06/10 04:19:13;;;;;;;23.30;18.23;;;;;15.20;101631.00;;;;10464214;28;20190;-76
2021/06/10 04:24:15;;;;;;;18.90;16.90;;;;;15.30;101632.00;;;;10497204;28;20676;-77
2021/06/10 04:29:17;;;;;;;18.73;15.23;;;;;15.40;101635.00;;;;10466137;28;20200;-77
2021/06/10 04:34:19;;;;;;;20.60;16.93;;;;;15.50;101641.00;;;;10488376;28;20845;-77
2021/06/10 04:39:21;;;;;;;17.70;15.83;;;;;15.60;101643.00;;;;10472069;28;20189;-77
2021/06/10 04:44:23;;;;;;;17.93;16.03;;;;;15.80;101649.00;;;;10488089;28;20256;-77
2021/06/10 04:49:25;;;;;;;19.77;17.60;;;;;16.00;101650.00;;;;10471753;28;20197;-77
2021/06/10 04:54:27;;;;;;;21.03;17.27;;;;;16.30;101651.00;;;;10471012;28;20283;-77
2021/06/10 04:59:30;;;;;;;22.87;18.03;;;;;16.70;101647.00;;;;10471601;28;20189;-77
2021/06/10 05:04:31;;;;;;;24.80;19.07;;;;;17.20;101649.00;;;;10435441;28;20250;-77
2021/06/10 05:09:33;;;;;;;24.67;18.13;;;;;17.60;101640.00;;;;10448875;28;20186;-77
2021/06/10 05:14:35;;;;;;;23.80;20.17;;;;;18.10;101643.00;;;;10447689;28;20245;-76
2021/06/10 05:19:37;;;;;;;23.33;19.70;;;;;18.60;101642.00;;;;10470296;28;20194;-77
2021/06/10 05:24:40;;;;;;;21.53;17.40;;;;;19.10;101648.00;;;;10486581;28;20580;-77
2021/06/10 05:29:42;;;;;;;24.17;18.13;;;;;19.60;101639.00;;;;10467819;28;20545;-77
2021/06/10 05:34:44;;;;;;;21.08;16.67;;;;;20.10;101633.00;;;;10477180;28;20226;-77
2021/06/10 05:39:46;;;;;;;16.17;13.10;;;;;20.70;101616.00;;;;10445273;28;20194;-76
2021/06/10 05:44:48;;;;;;;15.23;12.60;;;;;21.10;101603.00;;;;10464168;28;20214;-77
2021/06/10 05:49:49;;;;;;;12.63;11.35;;;;;21.50;101597.00;;;;10460664;28;20206;-77
2021/06/10 05:54:52;;;;;;;13.75;11.90;;;;;22.00;101591.00;;;;10469549;28;20192;-78
2021/06/10 05:59:54;;;;;;;14.23;10.82;;;;;22.50;101580.00;;;;10503264;28;20205;-77
2021/06/10 06:04:56;;;;;;;17.27;9.85;;;;;22.90;101574.00;;;;10485626;28;20216;-77
2021/06/10 06:09:58;;;;;;;11.55;9.70;;;;;23.20;101577.00;;;;10479440;28;20193;-77
2021/06/10 06:15:00;;;;;;;13.88;10.07;;;;;23.50;101580.00;;;;10502170;28;20199;-78
2021/06/10 06:20:03;;;;;;;11.75;8.57;;;;;23.80;101576.00;;;;10468685;28;20193;-77
2021/06/10 06:25:05;;;;;;;11.60;8.00;;;;;24.10;101571.00;;;;10453847;28;20297;-77
2021/06/10 06:30:10;;;;;;;7.60;4.65;;;;;24.50;101549.00;;;;10491614;28;20205;-77
2021/06/10 06:35:12;;;;;;;9.77;3.95;;;;;24.80;101532.00;;;;10473057;28;20225;-77
2021/06/10 06:40:14;;;;;;;10.98;4.47;;;;;25.10;101520.00;;;;10444034;28;20206;-77
2021/06/10 06:45:16;;;;;;;5.80;3.85;;;;;25.40;101525.00;;;;10486565;28;20535;-78
2021/06/10 06:50:18;;;;;;;7.85;4.75;;;;;25.70;101532.00;;;;10500952;28;20213;-78
2021/06/10 06:55:20;;;;;;;7.40;4.60;;;;;26.20;101536.00;;;;10467254;28;20237;-77
2021/06/10 07:00:24;;;;;;;8.45;4.70;;;;;26.60;101542.00;;;;10462826;28;20675;-77
2021/06/10 07:05:26;;;;;;;8.75;4.63;;;;;26.90;101548.00;;;;10500150;28;20209;-78
2021/06/10 07:10:28;;;;;;;9.02;5.63;;;;;27.20;101553.00;;;;10467477;28;20275;-78
2021/06/10 07:15:30;;;;;;;13.45;6.82;;;;;27.50;101548.00;;;;10442859;28;20248;-77
2021/06/10 07:20:31;;;;;;;10.75;8.98;;;;;27.80;101572.00;;;;10468936;28;20204;-78
2021/06/10 07:25:34;;;;;;;11.85;8.02;;;;;28.20;101585.00;;;;10482183;28;20206;-78
2021/06/10 07:30:36;;;;;;;6.00;5.35;;;;;28.50;101589.00;;;;10425325;28;20197;-78
2021/06/10 07:35:39;;;;;;;13.18;6.50;;;;;28.70;101586.00;;;;10489575;28;20731;-78
2021/06/10 07:40:41;;;;;;;11.82;6.30;;;;;28.90;101601.00;;;;10442352;28;20185;-77
2021/06/10 07:45:44;;;;;;;10.00;6.00;;;;;29.00;101598.00;;;;10482229;28;20205;-78
2021/06/10 07:50:46;;;;;;;7.88;5.97;;;;;29.20;101607.00;;;;10482058;28;20193;-78
2021/06/10 07:55:55;;;;;;;5.07;4.10;;;;;28.80;101603.00;;;;10462842;28;20248;-78
2021/06/10 08:00:58;;;;;;;10.95;3.65;;;;;27.80;101604.00;;;;10464765;28;20205;-77
2021/06/10 08:06:01;;;;;;;4.55;2.30;;;;;27.50;101604.00;;;;10470104;28;20283;-77
2021/06/10 08:11:06;;;;;;;6.10;2.10;;;;;27.50;101603.00;;;;10506612;28;20245;-78
2021/06/10 08:16:09;;;;;;;4.13;1.90;;;;;28.40;101595.00;;;;10466900;28;20660;-77
2021/06/10 08:21:16;;;;;;;2.50;1.50;;;;;29.40;101599.00;;;;10502308;28;20251;-78
2021/06/10 08:26:18;;;;;;;2.13;1.35;;;;;29.90;101599.00;;;;10464072;28;20202;-78
2021/06/10 08:31:20;;;;;;;2.25;1.20;;;;;30.10;101592.00;;;;10448478;28;20197;-77
2021/06/10 08:36:23;;;;;;;2.80;1.40;;;;;30.60;101592.00;;;;10473527;28;20228;-78
2021/06/10 08:41:26;;;;;;;4.65;1.30;;;;;31.20;101604.00;;;;10471724;28;20196;-78
2021/06/10 08:46:30;;;;;;;5.50;1.27;;;;;31.60;101608.00;;;;10498424;28;20198;-77
2021/06/10 08:51:34;;;;;;;3.08;1.17;;;;;32.20;101618.00;;;;10488090;28;20213;-78
2021/06/10 08:56:37;;;;;;;4.07;0.90;;;;;32.10;101625.00;;;;10467998;28;20204;-77
2021/06/10 09:01:42;;;;;;;3.88;1.08;;;;;32.40;101619.00;;;;10496271;28;20198;-77
2021/06/10 09:06:50;;;;;;;2.42;0.90;;;;;33.00;101625.00;;;;10439006;28;20197;-78
2021/06/10 09:11:56;;;;;;;3.67;1.10;;;;;33.10;101628.00;;;;10471094;28;20209;-77
2021/06/10 09:17:03;;;;;;;2.15;0.80;;;;;33.40;101629.00;;;;10486239;28;20281;-77
2021/06/10 09:22:05;;;;;;;2.63;1.02;;;;;32.30;101631.00;;;;10491729;28;20191;-78
2021/06/10 09:27:09;;;;;;;2.63;1.05;;;;;32.30;101626.00;;;;10456395;28;20220;-77
2021/06/10 09:32:18;;;;;;;3.65;0.90;;;;;32.70;101628.00;;;;10490174;28;20225;-78
2021/06/10 09:37:31;;;;;;;2.75;1.08;;;;;32.70;101626.00;;;;10428911;28;20210;-78
2021/06/10 09:42:36;;;;;;;3.92;1.38;;;;;32.30;101639.00;;;;10480778;28;20196;-78
2021/06/10 09:47:47;;;;;;;2.20;1.25;;;;;32.30;101637.00;;;;10469922;28;20206;-78
2021/06/10 09:53:02;;;;;;;4.30;1.23;;;;;32.60;101635.00;;;;10469824;28;20750;-78
2021/06/10 09:58:11;;;;;;;1.65;1.30;;;;;32.60;101646.00;;;;10471193;28;20202;-77
2021/06/10 10:03:22;;;;;;;4.82;1.40;;;;;32.70;101632.00;;;;10426827;28;20195;-78
2021/06/10 10:08:28;;;;;;;2.83;1.20;;;;;31.70;101647.00;;;;10460637;28;20202;-77
2021/06/10 10:13:31;;;;;;;2.25;1.15;;;;;30.60;101647.00;;;;10494796;28;20556;-77
2021/06/10 10:18:34;;;;;;;4.28;1.10;;;;;30.70;101642.00;;;;10483753;28;20213;-77
2021/06/10 10:23:36;;;;;;;5.95;1.40;;;;;30.60;101635.00;;;;10460519;28;20198;-77
2021/06/10 10:28:39;;;;;;;3.25;1.58;;;;;30.20;101644.00;;;;10452767;28;20201;-78
2021/06/10 10:33:46;;;;;;;2.08;1.67;;;;;29.60;101635.00;;;;10475941;28;20550;-77
2021/06/10 10:38:57;;;;;;;2.70;1.88;;;;;29.50;101633.00;;;;10458880;28;20210;-77
2021/06/10 10:44:20;;;;;;;2.83;2.15;;;;;29.70;101627.00;;;;10497788;28;20204;-78
2021/06/10 10:49:24;;;;;;;4.15;2.80;;;;;29.70;101617.00;;;;10437594;28;20190;-78
2021/06/10 10:54:33;;;;;;;2.70;2.50;;;;;29.70;101613.00;;;;10442992;28;20216;-78
2021/06/10 10:59:50;;;;;;;6.93;3.10;;;;;30.00;101612.00;;;;10468452;28;20202;-78
2021/06/10 11:04:58;;;;;;;2.28;2.08;;;;;30.50;101609.00;;;;10441923;28;20201;-78
2021/06/10 11:10:01;;;;;;;2.10;1.90;;;;;31.20;101618.00;;;;10425756;28;20198;-78
2021/06/10 11:15:05;;;;;;;3.92;2.40;;;;;31.20;101616.00;;;;10441347;28;20202;-78
2021/06/10 11:20:10;;;;;;;2.15;1.95;;;;;31.60;101615.00;;;;10443087;28;20205;-78
2021/06/10 11:25:35;;;;;;;3.25;2.60;;;;;32.70;101599.00;;;;10439989;28;20648;-79
2021/06/10 11:30:40;;;;;;;8.27;2.20;;;;;31.80;101592.00;;;;10482333;28;20216;-78
2021/06/10 11:35:45;;;;;;;5.50;2.75;;;;;32.90;101580.00;;;;10431798;28;20229;-78
2021/06/10 11:40:58;;;;;;;3.15;2.83;;;;;33.00;101575.00;;;;10481234;28;20678;-79
2021/06/10 11:46:03;;;;;;;3.80;2.17;;;;;32.20;101567.00;;;;10535939;28;20181;-78
2021/06/10 11:51:07;;;;;;;4.95;2.30;;;;;33.20;101573.00;;;;10465650;28;20190;-79
2021/06/10 11:56:09;;;;;;;3.58;1.98;;;;;33.90;101564.00;;;;10482995;28;20213;-79
2021/06/10 12:01:13;;;;;;;2.40;2.20;;;;;34.50;101559.00;;;;10472119;28;20279;-78
2021/06/10 12:06:16;;;;;;;3.72;2.35;;;;;34.40;101562.00;;;;10474431;28;20189;-79
2021/06/10 12:11:18;;;;;;;3.38;2.70;;;;;32.20;101567.00;;;;10496314;28;20201;-79
2021/06/10 12:16:20;;;;;;;4.43;2.25;;;;;32.50;101560.00;;;;10491284;28;20576;-78
2021/06/10 12:21:25;;;;;;;4.90;2.28;;;;;32.00;101559.00;;;;10456325;28;20627;-78
2021/06/10 12:26:33;;;;;;;2.28;2.08;;;;;32.60;101559.00;;;;10489190;28;20649;-78
2021/06/10 12:31:37;;;;;;;6.40;2.42;;;;;32.30;101556.00;;;;10523281;28;20221;-78
2021/06/10 12:36:42;;;;;;;2.72;2.47;;;;;32.30;101567.00;;;;10506196;28;20216;-78
2021/06/10 12:41:50;;;;;;;6.65;2.85;;;;;32.50;101549.00;;;;10480492;28;20591;-78
2021/06/10 12:47:00;;;;;;;2.15;1.88;;;;;33.10;101545.00;;;;10485248;28;20193;-78
2021/06/10 12:52:16;;;;;;;3.63;1.80;;;;;33.00;101545.00;;;;10523543;28;20204;-77
2021/06/10 12:57:20;;;;;;;1.95;1.75;;;;;32.70;101544.00;;;;10519476;28;20294;-78
2021/06/10 13:02:24;;;;;;;4.38;1.88;;;;;32.80;101541.00;;;;10495905;28;20189;-78
2021/06/10 13:07:45;;;;;;;3.97;2.30;;;;;32.10;101533.00;;;;10478084;28;20193;-78
2021/06/10 13:12:50;;;;;;;3.00;2.65;;;;;31.70;101536.00;;;;10490326;28;20214;-78
2021/06/10 13:17:58;;;;;;;4.55;3.03;;;;;31.80;101532.00;;;;10501544;28;20197;-78
2021/06/10 13:23:02;;;;;;;2.75;2.50;;;;;32.90;101527.00;;;;10486953;28;20186;-78
2021/06/10 13:28:18;;;;;;;4.75;2.92;;;;;33.50;101534.00;;;;10491433;28;20196;-79
2021/06/10 13:33:23;;;;;;;3.65;3.00;;;;;33.60;101525.00;;;;10494397;28;20208;-78
2021/06/10 13:38:25;;;;;;;5.57;2.90;;;;;34.80;101522.00;;;;10478369;28;20201;-78
2021/06/10 13:43:37;;;;;;;4.18;2.53;;;;;35.80;101523.00;;;;10494238;28;20209;-78
2021/06/10 13:48:40;;;;;;;4.00;3.25;;;;;36.70;101523.00;;;;10511850;28;20224;-78
2021/06/10 13:53:44;;;;;;;6.00;2.80;;;;;37.20;101511.00;;;;10504793;28;20299;-79
2021/06/10 13:58:46;;;;;;;3.38;2.80;;;;;35.10;101503.00;;;;10511573;28;20200;-79
2021/06/10 14:03:48;;;;;;;5.55;3.00;;;;;32.90;101494.00;;;;10453968;28;20412;-79
2021/06/10 14:08:51;;;;;;;3.15;2.78;;;;;35.10;101492.00;;;;10486129;28;20584;-79
2021/06/10 14:13:53;;;;;;;3.75;3.40;;;;;33.50;101502.00;;;;10468622;28;20240;-80
2021/06/10 14:18:55;;;;;;;3.25;2.95;;;;;36.00;101481.00;;;;10491606;28;20188;-80
2021/06/10 14:23:57;;;;;;;3.97;2.92;;;;;37.10;101478.00;;;;10542259;28;20542;-78
2021/06/10 14:29:07;;;;;;;3.60;3.05;;;;;36.50;101480.00;;;;10493371;28;20279;-78
2021/06/10 14:34:09;;;;;;;8.07;3.28;;;;;36.80;101484.00;;;;10509755;28;20224;-80
2021/06/10 14:39:13;;;;;;;7.30;2.90;;;;;38.50;101465.00;;;;10508571;28;20193;-79
2021/06/10 14:44:15;;;;;;;6.32;2.30;;;;;39.10;101474.00;;;;10492735;28;20235;-79
2021/06/10 14:49:18;;;;;;;4.55;1.95;;;;;39.30;101477.00;;;;10508834;28;20195;-79
2021/06/10 14:54:19;;;;;;;3.75;2.53;;;;;39.80;101467.00;;;;10503832;28;20209;-79
2021/06/10 14:59:22;;;;;;;5.32;2.75;;;;;39.70;101471.00;;;;10492385;28;20201;-79
2021/06/10 15:04:23;;;;;;;3.13;2.88;;;;;40.10;101462.00;;;;10474732;28;20200;-79
2021/06/10 15:09:26;;;;;;;2.95;2.75;;;;;40.30;101454.00;;;;10491157;28;20203;-80
2021/06/10 15:14:27;;;;;;;5.38;2.78;;;;;40.70;101457.00;;;;10474503;28;20217;-79
2021/06/10 15:19:29;;;;;;;3.60;2.80;;;;;39.50;101452.00;;;;10466694;28;20665;-79
2021/06/10 15:24:31;;;;;;;4.53;3.35;;;;;38.50;101452.00;;;;10509502;28;20187;-79
2021/06/10 15:29:34;;;;;;;4.05;3.22;;;;;34.80;101450.00;;;;10482381;28;20221;-80
2021/06/10 15:34:38;;;;;;;5.30;2.72;;;;;37.50;101453.00;;;;10449753;28;20615;-79
2021/06/10 15:39:40;;;;;;;2.78;2.58;;;;;38.90;101454.00;;;;10466710;28;20200;-80
2021/06/10 15:44:42;;;;;;;2.40;2.20;;;;;35.70;101441.00;;;;10482675;28;20181;-79
2021/06/10 15:49:45;;;;;;;2.80;2.50;;;;;35.10;101441.00;;;;10449050;28;20239;-79
2021/06/10 15:54:47;;;;;;;3.75;3.00;;;;;32.50;101441.00;;;;10459804;28;20213;-79
2021/06/10 15:59:49;;;;;;;3.95;3.65;;;;;29.60;101446.00;;;;10484281;28;20205;-80
2021/06/10 16:04:51;;;;;;;7.28;3.88;;;;;29.10;101439.00;;;;10464588;28;20196;-79
2021/06/10 16:09:53;;;;;;;5.25;3.95;;;;;29.20;101433.00;;;;10481310;28;20200;-79
2021/06/10 16:14:55;;;;;;;6.32;3.75;;;;;29.40;101436.00;;;;10479174;28;20205;-79
2021/06/10 16:19:57;;;;;;;3.78;3.47;;;;;29.30;101429.00;;;;10476981;28;20188;-79
2021/06/10 16:24:59;;;;;;;9.88;3.38;;;;;28.90;101428.00;;;;10491145;28;20351;-79
2021/06/10 16:30:02;;;;;;;5.93;3.97;;;;;28.20;101417.00;;;;10498602;28;20238;-79
2021/06/10 16:35:10;;;;;;;4.07;3.25;;;;;27.80;101414.00;;;;10497358;28;20694;-79
2021/06/10 16:40:14;;;;;;;3.60;3.30;;;;;27.70;101411.00;;;;10480760;28;20189;-79
2021/06/10 16:45:18;;;;;;;5.93;4.05;;;;;27.70;101399.00;;;;10514878;28;20196;-79
2021/06/10 16:50:20;;;;;;;4.25;3.85;;;;;27.70;101402.00;;;;10496902;28;20200;-79
2021/06/10 16:55:22;;;;;;;5.05;4.22;;;;;27.70;101397.00;;;;10496585;28;20196;-79
2021/06/10 17:00:33;;;;;;;7.03;3.65;;;;;27.50;101397.00;;;;10497213;28;20577;-79
2021/06/10 17:05:35;;;;;;;3.58;3.28;;;;;27.40;101393.00;;;;10514127;28;20662;-79
2021/06/10 17:10:37;;;;;;;6.57;3.47;;;;;27.00;101392.00;;;;10530101;28;20193;-79
2021/06/10 17:15:39;;;;;;;4.00;2.90;;;;;27.00;101396.00;;;;10513542;28;20220;-78
2021/06/10 17:20:41;;;;;;;3.42;2.90;;;;;27.10;101394.00;;;;10529611;28;20548;-79
2021/06/10 17:25:45;;;;;;;3.63;3.17;;;;;27.20;101393.00;;;;10529137;28;20242;-78
2021/06/10 17:30:47;;;;;;;2.72;2.53;;;;;27.10;101399.00;;;;10512859;28;20284;-81
2021/06/10 17:35:49;;;;;;;3.08;2.55;;;;;26.90;101393.00;;;;10452151;28;20230;-77
2021/06/10 17:40:51;;;;;;;6.88;2.50;;;;;26.80;101390.00;;;;10452056;28;20193;-77
2021/06/10 17:45:54;;;;;;;3.35;3.00;;;;;26.60;101390.00;;;;10473024;28;20201;-76
2021/06/10 17:50:56;;;;;;;4.07;3.30;;;;;26.40;101392.00;;;;10510839;28;20299;-77
2021/06/10 17:55:58;;;;;;;3.20;2.90;;;;;26.20;101395.00;;;;10472026;28;20915;-77
2021/06/10 18:01:00;;;;;;;4.53;3.10;;;;;26.10;101396.00;;;;10485730;28;20196;-79
2021/06/10 18:06:03;;;;;;;4.10;3.00;;;;;26.10;101400.00;;;;10451273;28;20197;-78
2021/06/10 18:11:05;;;;;;;2.83;2.53;;;;;26.00;101395.00;;;;10451449;28;20224;-78
2021/06/10 18:16:07;;;;;;;3.65;2.25;;;;;25.90;101393.00;;;;10501254;28;20225;-78
2021/06/10 18:21:09;;;;;;;3.38;2.20;;;;;25.70;101385.00;;;;10484318;28;20247;-78
2021/06/10 18:26:15;;;;;;;3.17;2.05;;;;;25.40;101393.00;;;;10507569;28;20193;-77
2021/06/10 18:31:17;;;;;;;2.35;1.83;;;;;25.30;101402.00;;;;10475880;28;20188;-77
2021/06/10 18:36:19;;;;;;;5.20;2.13;;;;;25.20;101389.00;;;;10491949;28;20734;-77
2021/06/10 18:41:21;;;;;;;2.30;2.10;;;;;25.20;101391.00;;;;10492185;28;20200;-78
2021/06/10 18:46:23;;;;;;;2.55;2.05;;;;;25.20;101392.00;;;;10481160;28;20672;-78
2021/06/10 18:51:28;;;;;;;6.88;6.18;;;;;25.00;101392.00;;;;10501121;28;20205;-78
2021/06/10 18:56:30;;;;;;;11.48;7.80;;;;;24.50;101404.00;;;;10501418;28;20714;-78
2021/06/10 19:01:32;;;;;;;10.82;8.20;;;;;24.00;101414.00;;;;10483834;28;20202;-77
2021/06/10 19:06:34;;;;;;;8.95;7.10;;;;;23.70;101419.00;;;;10466674;28;20196;-78
2021/06/10 19:11:36;;;;;;;8.52;6.38;;;;;23.50;101433.00;;;;10450545;28;20189;-78
2021/06/10 19:16:38;;;;;;;7.25;5.70;;;;;23.80;101423.00;;;;10449470;28;20240;-78
2021/06/10 19:21:40;;;;;;;7.95;5.40;;;;;24.20;101426.00;;;;10466495;28;20247;-78
2021/06/10 19:26:42;;;;;;;6.90;5.78;;;;;23.30;101442.00;;;;10476911;28;20185;-79
2021/06/10 19:31:45;;;;;;;6.65;4.65;;;;;22.80;101452.00;;;;10507555;28;20212;-78
2021/06/10 19:36:47;;;;;;;4.90;4.35;;;;;22.30;101463.00;;;;10491022;28;20212;-77
2021/06/10 19:41:50;;;;;;;4.80;4.30;;;;;21.90;101460.00;;;;10473879;28;20659;-78
2021/06/10 19:46:52;;;;;;;4.80;3.40;;;;;21.50;101477.00;;;;10490724;28;20211;-78
2021/06/10 19:51:54;;;;;;;3.28;2.72;;;;;21.20;101487.00;;;;10473898;28;20862;-77
2021/06/10 19:56:56;;;;;;;2.92;2.38;;;;;20.90;101489.00;;;;10464664;28;20217;-77
2021/06/10 20:01:57;;;;;;;1.73;1.63;;;;;20.70;101491.00;;;;10455031;28;20193;-77
2021/06/10 20:07:00;;;;;;;3.30;1.80;;;;;20.50;101498.00;;;;10489569;28;20185;-77
2021/06/10 20:12:06;;;;;;;2.58;1.70;;;;;20.30;101525.00;;;;10505804;28;20242;-79
2021/06/10 20:17:08;;;;;;;1.88;1.77;;;;;20.10;101526.00;;;;10489386;28;20580;-78
2021/06/10 20:22:10;;;;;;;2.65;2.05;;;;;19.90;101535.00;;;;10507410;28;20256;-78
2021/06/10 20:32:14;;;;;;;2.42;2.22;;;;;19.60;101552.00;;;;10470016;28;20235;-78
2021/06/10 20:37:21;;;;;;;3.70;2.25;;;;;19.50;101555.00;;;;10489818;28;20213;-77
2021/06/10 20:42:22;;;;;;;3.83;2.30;;;;;19.40;101551.00;;;;10506047;28;20276;-78
2021/06/10 20:47:24;;;;;;;3.53;2.53;;;;;19.20;101564.00;;;;10488797;28;20196;-78
2021/06/10 20:52:26;;;;;;;2.60;2.40;;;;;19.20;101572.00;;;;10523412;28;20219;-78
2021/06/10 20:57:29;;;;;;;2.78;2.17;;;;;19.00;101581.00;;;;10472880;28;20603;-78
2021/06/10 21:02:31;;;;;;;3.83;2.30;;;;;18.90;101581.00;;;;10448317;28;20209;-78
2021/06/10 21:07:33;;;;;;;5.30;2.63;;;;;18.80;101591.00;;;;10464893;28;20190;-78
2021/06/10 21:12:35;;;;;;;4.67;2.17;;;;;18.70;101596.00;;;;10483886;28;20197;-78
2021/06/10 21:17:39;;;;;;;4.18;2.05;;;;;18.70;101593.00;;;;10494228;28;20223;-78
2021/06/10 21:22:41;;;;;;;3.05;2.03;;;;;18.60;101604.00;;;;10496434;28;20256;-78
2021/06/10 21:27:44;;;;;;;2.83;2.10;;;;;18.50;101608.00;;;;10465275;28;20216;-78
2021/06/10 21:32:46;;;;;;;3.55;2.50;;;;;18.40;101603.00;;;;10471610;28;20225;-77
2021/06/10 21:37:48;;;;;;;4.53;2.53;;;;;18.30;101601.00;;;;10437950;28;20270;-77
2021/06/10 21:42:51;;;;;;;4.07;2.67;;;;;18.20;101616.00;;;;10453421;28;20289;-77
2021/06/10 21:47:53;;;;;;;3.77;2.23;;;;;18.10;101612.00;;;;10528080;28;20216;-78
2021/06/10 21:52:56;;;;;;;2.57;2.37;;;;;18.00;101612.00;;;;10496162;28;20639;-78
2021/06/10 21:57:58;;;;;;;3.30;2.47;;;;;18.00;101605.00;;;;10511050;28;20227;-78
2021/06/10 22:03:01;;;;;;;4.73;2.53;;;;;17.90;101608.00;;;;10511490;28;20204;-78
2021/06/10 22:08:05;;;;;;;4.03;2.73;;;;;17.80;101616.00;;;;10478268;28;20189;-78
2021/06/10 22:13:08;;;;;;;3.67;2.57;;;;;17.70;101613.00;;;;10494355;28;20188;-77
2021/06/10 22:18:12;;;;;;;3.40;2.47;;;;;17.60;101612.00;;;;10494314;28;20246;-78
2021/06/10 22:23:16;;;;;;;5.13;2.97;;;;;17.50;101602.00;;;;10495376;28;20207;-78
2021/06/10 22:28:19;;;;;;;4.40;3.10;;;;;17.40;101607.00;;;;10478756;28;20200;-78
2021/06/10 22:33:22;;;;;;;6.10;2.97;;;;;17.30;101615.00;;;;10493457;28;20224;-78
2021/06/10 22:38:26;;;;;;;3.17;2.87;;;;;17.20;101603.00;;;;10510528;28;20658;-78
2021/06/10 22:43:31;;;;;;;3.97;3.10;;;;;17.10;101612.00;;;;10510821;28;20195;-78
2021/06/10 22:48:33;;;;;;;7.17;3.50;;;;;17.00;101603.00;;;;10510845;28;20193;-78
2021/06/10 22:53:38;;;;;;;5.00;3.70;;;;;16.90;101614.00;;;;10509828;28;20211;-78
2021/06/10 22:58:41;;;;;;;4.70;3.30;;;;;16.80;101613.00;;;;10510823;28;20193;-78
2021/06/10 23:03:44;;;;;;;7.13;3.70;;;;;16.70;101613.00;;;;10526695;28;20193;-78
2021/06/10 23:08:46;;;;;;;7.23;3.63;;;;;16.60;101609.00;;;;10509879;28;20660;-78
2021/06/10 23:13:48;;;;;;;4.73;3.47;;;;;16.50;101617.00;;;;10484795;28;20217;-78
2021/06/10 23:18:50;;;;;;;7.60;4.27;;;;;16.50;101617.00;;;;10505032;28;20185;-78
2021/06/10 23:23:52;;;;;;;6.07;4.00;;;;;16.40;101615.00;;;;10488788;28;20197;-78
2021/06/10 23:28:55;;;;;;;5.77;3.83;;;;;16.40;101620.00;;;;10484417;28;20201;-78
2021/06/10 23:33:57;;;;;;;9.03;4.47;;;;;16.40;101619.00;;;;10529744;28;20224;-78
2021/06/10 23:38:59;;;;;;;7.93;4.40;;;;;16.40;101612.00;;;;10526172;28;20200;-78
2021/06/10 23:44:01;;;;;;;8.23;4.33;;;;;16.40;101621.00;;;;10525948;28;20267;-78
2021/06/10 23:49:04;;;;;;;5.07;3.77;;;;;16.30;101614.00;;;;10508711;28;20196;-78
2021/06/10 23:54:05;;;;;;;6.53;4.03;;;;;16.20;101615.00;;;;10508048;28;20209;-78
2021/06/10 23:59:07;;;;;;;8.73;4.47;;;;;16.20;101607.00;;;;10525009;28;20193;-78
